Latest Weather Observations for Tasman Island

IDT60901

Issued at 12:45 pm EDT Sunday 26 October 2014 (issued every 10 minutes, with the page automatically refreshed every 10 minutes)

About weather observations | Map of Hobart area stations | Latest observations for Hobart area | Other Formats
Station Details ID: 094155 Name: TASMAN ISLAND Lat: -43.24 Lon: 148.00 Height: 240.0 m
Data from the previous 72 hours. | See also: Recent months at Tasman Island
Date/Time
EDT
Tmp

°C
App
Tmp
°C
Dew
Point
°C
Rel
Hum
%
Delta-T

°C
Wind Press
QNH
hPa
Press
MSL
hPa
Rain
since
9 am
mm
Dir
 
Spd
km/h
Gust
km/h
Spd
kts
Gust
kts
26/12:30pm 8.8 4.7 8.8 100 0.0 NE 20 37 11 20 1014.2 1014.4 2.2
26/12:00pm 8.9 4.9 8.9 100 0.0 NE 20 39 11 21 1014.6 1014.7 2.2
26/11:30am 8.8 5.7 8.8 100 0.0 NNE 15 32 8 17 1014.7 1014.8 2.0
26/11:00am 8.7 4.8 8.7 100 0.0 NE 19 33 10 18 1015.1 1015.2 1.4
26/10:30am 8.7 4.8 8.7 100 0.0 NE 19 35 10 19 1015.0 1015.1 1.0
26/10:00am 8.5 5.3 8.4 99 0.0 N 15 33 8 18 1014.9 1015.0 0.6
26/09:30am 8.7 5.5 8.4 98 0.1 NNE 15 46 8 25 1015.0 1015.1 0.2
26/09:00am 8.8 6.4 8.5 98 0.1 NNE 11 33 6 18 1015.1 1015.2 5.4
26/08:30am 8.8 6.0 8.7 99 0.0 NNE 13 28 7 15 1015.0 1015.1 5.4
26/08:00am 8.6 6.6 8.6 100 0.0 N 9 26 5 14 1015.1 1015.2 5.4
26/07:30am 8.2 4.9 8.2 100 0.0 E 15 33 8 18 1014.9 1015.0 5.2
26/07:00am 8.2 5.7 8.2 100 0.0 E 11 28 6 15 1015.0 1015.1 4.2
26/06:30am 7.9 4.9 7.9 100 0.0 ESE 13 32 7 17 1015.0 1015.1 4.2
26/06:00am 7.8 5.6 7.8 100 0.0 ESE 9 24 5 13 1015.3 1015.4 3.4
26/05:30am 7.8 5.6 7.7 99 0.0 SE 9 26 5 14 1015.0 1015.1 3.4
26/05:00am 7.5 5.6 7.4 99 0.0 ESE 7 24 4 13 1015.6 1015.8 3.2
26/04:30am 7.6 5.7 7.5 99 0.0 E 7 19 4 10 1015.6 1015.8 2.4
26/04:00am 7.6 5.3 7.5 99 0.0 E 9 24 5 13 1015.4 1015.5 1.6
26/03:30am 7.6 5.7 7.5 99 0.0 E 7 20 4 11 1015.6 1015.8 1.6
26/03:00am 7.5 5.0 6.4 93 0.5 E 9 19 5 10 1015.8 1016.0 1.2
26/02:30am 8.1 6.1 6.9 92 0.6 E 7 19 4 10 1016.3 1016.5 1.0
26/02:00am 8.0 5.9 6.8 92 0.6 E 7 19 4 10 1016.4 1016.6 1.0
26/01:30am 8.0 5.5 6.5 90 0.7 E 9 15 5 8 1017.1 1017.3 1.0
26/01:00am 8.3 6.3 6.3 87 0.9 NE 6 15 3 8 1017.3 1017.5 0.8
26/12:30am 9.0 6.8 5.2 77 1.7 NNE 6 11 3 6 1017.5 1017.7 0.2
26/12:00am 9.0 7.2 5.4 78 1.6 SSW 4 11 2 6 1017.6 1017.8 0.2
 
Date/Time
EDT
Tmp

°C
App
Tmp
°C
Dew
Point
°C
Rel
Hum
%
Delta-T

°C
Wind Press
QNH
hPa
Press
MSL
hPa
Rain
since
9 am
mm
Dir
 
Spd
km/h
Gust
km/h
Spd
kts
Gust
kts
25/11:30pm 9.0 7.2 5.2 77 1.7 SSW 4 13 2 7 1017.8 1018.0 0.2
25/11:00pm 9.0 6.8 5.2 77 1.7 SE 6 13 3 7 1017.5 1017.7 0.2
25/10:30pm 8.9 6.6 4.9 76 1.8 SSE 6 11 3 6 1017.8 1018.0 0.2
25/10:00pm 9.0 7.1 5.0 76 1.8 S 4 11 2 6 1018.0 1018.2 0.2
25/09:30pm 8.9 6.6 4.9 76 1.8 SSE 6 13 3 7 1018.1 1018.3 0.2
25/09:00pm 9.0 6.2 5.2 77 1.7 SSE 9 19 5 10 1017.8 1018.0 0.2
25/08:30pm 9.0 5.8 5.0 76 1.8 SSE 11 17 6 9 1018.0 1018.2 0.2
25/08:00pm 8.9 5.7 4.9 76 1.8 S 11 17 6 9 1017.7 1017.9 0.2
25/07:30pm 9.0 5.4 5.2 77 1.7 S 13 20 7 11 1017.7 1017.9 0.2
25/07:00pm 9.2 5.6 5.2 76 1.8 S 13 20 7 11 1017.3 1017.5 0.2
25/06:30pm 9.5 6.4 5.7 77 1.8 S 11 17 6 9 1017.3 1017.5 0.2
25/06:00pm 9.6 6.6 5.8 77 1.8 S 11 19 6 10 1017.1 1017.3 0.2
25/05:30pm 10.2 6.8 6.0 75 2.0 S 13 22 7 12 1016.6 1016.8 0.2
25/05:00pm 10.8 6.7 6.4 74 2.1 SSW 17 26 9 14 1016.7 1016.9 0.2
25/04:30pm 11.5 7.2 6.8 73 2.3 SSW 19 26 10 14 1016.3 1016.5 0.2
25/04:00pm 11.5 7.1 6.4 71 2.4 SSW 19 30 10 16 1016.7 1016.9 0.2
25/03:30pm 11.6 7.3 7.9 78 1.8 SSW 20 32 11 17 1016.7 1016.9 0.2
25/03:00pm 11.6 5.3 7.5 76 2.0 SSW 30 43 16 23 1016.2 1016.4 0.2
25/02:30pm 11.8 6.7 7.5 75 2.1 SSW 24 37 13 20 1016.5 1016.7 0.2
25/02:00pm 12.1 7.0 9.3 83 1.4 SSW 26 43 14 23 1016.3 1016.5 0.0
25/01:30pm 11.6 5.7 9.2 85 1.2 SSW 30 44 16 24 1016.1 1016.3 0.0
25/01:17pm 11.0 4.3 9.6 91 0.7 SSW 35 54 19 29 1015.9 1016.1 0.0
25/01:00pm 11.5 5.3 9.4 87 1.1 SSW 32 44 17 24 1015.7 1015.9 0.0
25/12:30pm 11.2 3.1 10.0 92 0.6 SW 43 63 23 34 1015.6 1015.8 0.0
25/12:00pm 11.8 3.4 9.7 87 1.1 SW 44 63 24 34 1015.2 1015.3 0.0
25/11:36am 11.6 2.5 10.0 90 0.8 SW 48 67 26 36 1014.9 1015.0 0.0
25/11:30am 11.3 1.8 9.9 91 0.7 SW 50 67 27 36 1014.8 1014.9 0.0
25/11:00am 11.1 3.3 9.9 92 0.6 SW 41 63 22 34 1015.0 1015.1 0.0
25/10:30am 11.2 4.5 9.8 91 0.7 SW 35 57 19 31 1015.5 1015.7 0.0
25/10:07am 11.2 3.5 10.0 92 0.6 SW 41 61 22 33 1015.1 1015.2 0.0
25/10:00am 11.2 3.1 10.0 92 0.6 SW 43 57 23 31 1014.8 1014.9 0.0
25/09:30am 11.4 4.3 9.5 88 1.0 SW 37 61 20 33 1014.7 1014.8 0.0
25/09:00am 11.4 3.9 9.3 87 1.1 SW 39 59 21 32 1014.7 1014.8 0.2
25/08:30am 11.3 2.7 8.9 85 1.2 SW 44 69 24 37 1013.8 1014.0 0.2
25/08:06am 11.0 1.3 10.5 97 0.3 SW 52 70 28 38 1013.1 1013.3 0.2
25/08:00am 10.9 1.3 10.7 99 0.1 SW 52 67 28 36 1013.2 1013.4 0.2
25/07:37am 11.3 5.1 11.3 100 0.0 SW 35 54 19 29 1013.6 1013.8 0.2
25/07:30am 11.1 4.8 11.1 100 0.0 SW 35 50 19 27 1013.5 1013.7 0.2
25/07:02am 10.7 5.2 10.7 100 0.0 SSW 30 54 16 29 1012.7 1012.9 0.2
25/07:00am 10.8 5.8 10.8 100 0.0 SSW 28 46 15 25 1012.7 1012.9 0.2
25/06:37am 10.5 3.7 10.5 100 0.0 SW 37 56 20 30 1012.4 1012.6 0.2
25/06:30am 10.9 3.0 10.9 100 0.0 SW 43 56 23 30 1012.2 1012.4 0.2
25/06:01am 10.5 0.8 10.5 100 0.0 SW 52 72 28 39 1011.3 1011.4 0.2
25/06:00am 10.6 0.6 10.6 100 0.0 SW 54 72 29 39 1011.2 1011.3 0.2
25/05:30am 11.0 5.3 11.0 100 0.0 SW 32 59 17 32 1010.5 1010.6 0.2
25/05:19am 11.1 6.1 11.1 100 0.0 SW 28 61 15 33 1010.3 1010.4 0.2
25/05:00am 11.2 7.8 11.2 100 0.0 SW 20 35 11 19 1010.8 1010.9 0.2
25/04:30am 11.3 3.4 11.3 100 0.0 SW 44 63 24 34 1010.3 1010.4 0.2
25/04:17am 11.3 3.5 11.3 100 0.0 SW 43 72 23 39 1009.7 1009.9 0.2
25/04:00am 11.3 5.6 11.3 100 0.0 SW 32 54 17 29 1009.6 1009.8 0.2
25/03:51am 11.4 6.5 11.4 100 0.0 SW 28 46 15 25 1009.5 1009.7 0.2
25/03:30am 11.5 7.4 11.5 100 0.0 SW 24 44 13 24 1009.4 1009.6 0.2
25/03:00am 11.7 4.8 11.7 100 0.0 SW 39 65 21 35 1009.0 1009.2 0.2
25/02:33am 11.7 6.5 11.7 100 0.0 SW 30 52 16 28 1008.5 1008.7 0.2
25/02:30am 11.7 6.5 11.7 100 0.0 SW 30 48 16 26 1008.5 1008.7 0.2
25/02:16am 11.6 6.8 11.6 100 0.0 SW 28 46 15 25 1008.3 1008.4 0.2
25/02:00am 11.6 8.3 11.6 100 0.0 SW 20 41 11 22 1008.5 1008.7 0.2
25/01:30am 11.7 9.0 11.7 100 0.0 SW 17 41 9 22 1008.3 1008.4 0.2
25/01:00am 11.9 9.3 11.9 100 0.0 WSW 17 32 9 17 1008.8 1009.0 0.2
25/12:30am 12.3 7.7 12.3 100 0.0 SW 28 39 15 21 1008.7 1008.9 0.2
25/12:00am 12.9 7.2 12.9 100 0.0 SW 35 50 19 27 1009.0 1009.2 0.2
 
Date/Time
EDT
Tmp

°C
App
Tmp
°C
Dew
Point
°C
Rel
Hum
%
Delta-T

°C
Wind Press
QNH
hPa
Press
MSL
hPa
Rain
since
9 am
mm
Dir
 
Spd
km/h
Gust
km/h
Spd
kts
Gust
kts
24/11:48pm 13.6 9.4 13.6 100 0.0 SW 28 46 15 25 1009.0 1009.2 0.2
24/11:30pm 13.8 10.4 13.8 100 0.0 SW 24 37 13 20 1008.9 1009.1 0.2
24/11:00pm 13.6 11.1 13.6 100 0.0 WNW 19 22 10 12 1008.3 1008.4 0.2
24/10:30pm 13.3 10.7 13.3 100 0.0 N 19 30 10 16 1008.4 1008.5 0.2
24/10:00pm 13.3 9.4 13.3 100 0.0 N 26 39 14 21 1008.6 1008.8 0.2
24/09:30pm 13.3 6.9 13.3 100 0.0 N 39 52 21 28 1008.6 1008.8 0.2
24/09:00pm 13.0 4.4 13.0 100 0.0 N 50 61 27 33 1008.5 1008.7 0.2
24/08:30pm 13.4 3.8 13.4 100 0.0 N 56 72 30 39 1008.2 1008.3 0.2
24/08:00pm 12.9 3.6 12.9 100 0.0 NNE 54 70 29 38 1007.8 1007.9 0.2
24/07:31pm 13.0 3.1 13.0 100 0.0 NNE 57 76 31 41 1008.0 1008.1 0.2
24/07:30pm 13.1 2.9 13.1 100 0.0 NNE 59 76 32 41 1008.0 1008.1 0.2
24/07:00pm 13.0 3.1 13.0 100 0.0 NNE 57 72 31 39 1009.0 1009.2 0.2
24/06:30pm 12.9 3.2 12.9 100 0.0 NNE 56 70 30 38 1009.6 1009.8 0.2
24/06:00pm 12.8 3.8 12.8 100 0.0 NNE 52 67 28 36 1009.8 1010.0 0.0
24/05:37pm 12.7 6.1 12.7 100 0.0 N 39 59 21 32 1010.8 1010.9 0.0
24/05:30pm 12.7 5.4 12.7 100 0.0 NNE 43 59 23 32 1010.7 1010.8 0.0
24/05:01pm 12.6 4.3 12.6 100 0.0 NNE 48 67 26 36 1010.7 1010.8 0.0
24/05:00pm 12.6 3.9 12.6 100 0.0 NNE 50 67 27 36 1010.8 1010.9 0.0
24/04:30pm 12.5 3.8 12.5 100 0.0 NNE 50 67 27 36 1010.7 1010.8 0.0
24/04:00pm 12.3 2.8 12.3 100 0.0 NNE 54 67 29 36 1011.5 1011.6 0.0
24/03:30pm 12.2 2.1 12.2 100 0.0 NNE 57 74 31 40 1011.8 1011.9 0.0
24/03:00pm 12.0 2.0 12.0 100 0.0 NNE 56 72 30 39 1012.3 1012.5 0.0
24/02:30pm 11.9 1.9 11.9 100 0.0 NNE 56 74 30 40 1012.8 1013.0 0.0
24/02:00pm 11.6 2.2 11.6 100 0.0 NNE 52 67 28 36 1013.5 1013.7 0.0
24/01:44pm 11.5 1.3 11.5 100 0.0 NNE 56 74 30 40 1013.9 1014.1 0.0
24/01:30pm 11.5 1.7 11.5 100 0.0 NNE 54 69 29 37 1014.2 1014.4 0.0
24/01:00pm 11.3 3.0 11.3 100 0.0 NNE 46 63 25 34 1015.1 1015.2 0.0
24/12:30pm 11.3 1.8 11.0 98 0.2 NNE 52 67 28 36 1015.3 1015.4 0.0
24/12:05pm 11.4 2.9 10.6 95 0.4 NNE 46 65 25 35 1015.9 1016.1 0.0
24/12:00pm 11.4 2.5 10.6 95 0.4 NNE 48 67 26 36 1015.8 1016.0 0.0
24/11:30am 11.1 1.7 10.0 93 0.6 NNE 50 65 27 35 1016.8 1017.0 0.0
24/11:15am 11.1 1.6 9.7 91 0.7 NNE 50 69 27 37 1016.9 1017.1 0.0
24/11:00am 11.2 1.2 9.5 89 0.9 NNE 52 67 28 36 1016.9 1017.1 0.0
24/10:30am 11.0 1.6 8.8 86 1.1 NNE 48 70 26 38 1017.3 1017.5 0.0
24/10:00am 10.9 0.2 8.0 82 1.4 NNE 54 82 29 44 1017.5 1017.7 0.0
24/09:30am 11.0 -0.2 7.5 79 1.7 NNE 56 78 30 42 1018.1 1018.3 0.0
24/09:00am 10.8 -0.5 7.3 79 1.7 NNE 56 76 30 41 1018.6 1018.8 0.0
24/08:30am 10.6 -0.8 6.6 76 1.9 NNE 56 80 30 43 1018.9 1019.0 0.0
24/08:00am 10.6 -0.2 6.2 74 2.1 NNE 52 78 28 42 1019.4 1019.6 0.0
24/07:30am 10.1 0.0 5.9 75 2.0 NNE 48 70 26 38 1019.8 1020.0 0.0
24/07:11am 10.1 -0.3 6.1 76 1.9 NNE 50 70 27 38 1019.9 1020.1 0.0
24/07:00am 10.0 -0.3 6.3 78 1.7 NNE 50 69 27 37 1020.0 1020.2 0.0
24/06:32am 9.7 -1.2 5.7 76 1.9 NNE 52 70 28 38 1020.0 1020.2 0.0
24/06:30am 9.7 -1.2 5.7 76 1.9 NNE 52 69 28 37 1020.0 1020.2 0.0
24/06:07am 9.8 0.1 6.0 77 1.8 NNE 46 67 25 36 1020.4 1020.6 0.0
24/06:00am 9.9 -0.4 6.3 78 1.7 NNE 50 67 27 36 1020.4 1020.6 0.0
24/05:42am 9.9 0.7 6.4 79 1.7 NNE 44 67 24 36 1020.4 1020.6 0.0
24/05:30am 9.7 0.0 5.9 77 1.8 NNE 46 65 25 35 1020.3 1020.5 0.0
24/05:00am 9.7 0.0 5.7 76 1.8 NNE 46 67 25 36 1020.8 1021.0 0.0
24/04:36am 9.7 0.0 5.7 76 1.9 NNE 46 67 25 36 1021.1 1021.3 0.0
24/04:30am 9.7 0.4 5.7 76 1.9 NNE 44 59 24 32 1021.2 1021.4 0.0
24/04:00am 9.6 0.8 5.6 76 1.8 NNE 41 59 22 32 1021.7 1021.9 0.0
24/03:48am 9.4 0.0 5.4 76 1.8 NNE 44 63 24 34 1021.9 1022.1 0.0
24/03:30am 9.3 -0.8 5.5 77 1.7 NNE 48 63 26 34 1022.0 1022.2 0.0
24/03:03am 9.2 -0.6 5.4 77 1.7 NNE 46 67 25 36 1022.1 1022.3 0.0
24/03:00am 9.2 -1.0 5.4 77 1.7 NNE 48 67 26 36 1022.1 1022.3 0.0
24/02:30am 9.1 -0.4 5.1 76 1.8 NNE 44 69 24 37 1022.7 1023.0 0.0
24/02:19am 9.3 0.5 5.5 77 1.7 NNE 41 59 22 32 1022.9 1023.2 0.0
24/02:00am 9.0 0.5 5.0 76 1.8 NNE 39 54 21 29 1023.5 1023.7 0.0
24/01:30am 9.3 0.9 5.7 78 1.7 NNE 39 61 21 33 1023.5 1023.7 0.0
24/01:08am 9.1 0.9 4.9 75 1.9 NNE 37 56 20 30 1023.8 1024.0 0.0
24/01:00am 9.2 0.7 5.0 75 1.9 NNE 39 54 21 29 1024.0 1024.2 0.0
24/12:30am 9.0 2.6 5.0 76 1.8 NNE 28 50 15 27 1024.4 1024.6 0.0
24/12:04am 9.0 0.9 5.2 77 1.7 NNE 37 56 20 30 1024.7 1024.9 0.0
24/12:00am 8.8 0.2 4.8 76 1.8 NNE 39 56 21 30 1024.7 1024.9 0.0
 
Date/Time
EDT
Tmp

°C
App
Tmp
°C
Dew
Point
°C
Rel
Hum
%
Delta-T

°C
Wind Press
QNH
hPa
Press
MSL
hPa
Rain
since
9 am
mm
Dir
 
Spd
km/h
Gust
km/h
Spd
kts
Gust
kts
23/11:30pm 8.8 1.6 4.8 76 1.8 NNE 32 54 17 29 1024.9 1025.1 0.0
23/11:00pm 8.9 2.4 4.9 76 1.8 NNE 28 48 15 26 1024.5 1024.7 0.0
23/10:47pm 9.1 2.7 5.1 76 1.8 NNE 28 50 15 27 1024.6 1024.8 0.0
23/10:30pm 9.0 3.3 4.8 75 1.9 NE 24 46 13 25 1024.7 1024.9 0.0
23/10:00pm 8.9 3.1 4.5 74 2.0 NNE 24 43 13 23 1025.1 1025.3 0.0
23/09:30pm 8.9 4.1 4.5 74 2.0 NNE 19 33 10 18 1025.6 1025.8 0.0
23/09:00pm 9.0 4.0 4.4 73 2.0 NE 20 35 11 19 1025.7 1025.9 0.0
23/08:30pm 9.0 6.1 4.4 73 2.1 NNE 9 24 5 13 1025.9 1026.1 0.0
23/08:00pm 8.9 5.1 4.1 72 2.1 NNE 13 28 7 15 1025.8 1026.0 0.0
23/07:30pm 8.9 4.3 3.7 70 2.3 NE 17 30 9 16 1026.0 1026.3 0.0
23/07:00pm 9.1 4.2 3.9 70 2.3 NE 19 26 10 14 1025.8 1026.0 0.0
23/06:30pm 9.5 6.5 4.3 70 2.3 NW 9 20 5 11 1025.9 1026.1 0.0
23/06:00pm 9.5 5.7 3.9 68 2.5 E 13 26 7 14 1026.0 1026.3 0.0
23/05:30pm 9.8 6.8 4.0 67 2.6 E 9 30 5 16 1025.8 1026.0 0.0
23/05:00pm 10.4 7.4 4.3 66 2.7 E 9 26 5 14 1025.7 1025.9 0.0
23/04:30pm 10.2 6.0 3.7 64 2.9 E 15 24 8 13 1025.5 1025.7 0.0
23/04:00pm 10.2 7.5 3.5 63 2.9 E 7 20 4 11 1025.5 1025.7 0.0
23/03:30pm 11.3 8.9 4.3 62 3.2 E 6 19 3 10 1025.4 1025.6 0.0
23/03:00pm 11.6 8.6 4.3 61 3.3 E 9 19 5 10 1025.3 1025.5 0.0
23/02:30pm 11.9 9.0 4.6 61 3.4 ESE 9 20 5 11 1025.6 1025.8 0.0
23/02:00pm 11.1 7.7 4.1 62 3.1 ESE 11 20 6 11 1025.7 1025.9 0.0
23/01:30pm 12.0 9.1 4.7 61 3.4 ESE 9 20 5 11 1025.8 1026.0 0.0
23/01:00pm 11.6 8.1 3.6 58 3.6 E 11 22 6 12 1025.7 1025.9 0.0

Latest Capital City Observations: Canberra | Sydney | Melbourne | Brisbane | Adelaide | Perth | Hobart | Darwin

Other Formats:

Comma delimited format used in spreadsheet applications
http://www.bom.gov.au/fwo/IDT60901/IDT60901.95986.axf

JavaScript Object Notation format (JSON) in row-major order
http://www.bom.gov.au/fwo/IDT60901/IDT60901.95986.json